Solway, Minnesota
Current Conditions -  °F | °C
As of 10:32 PM on Wednesday 26 Nov 2014 (Local Time) from KBJI Reporting Station
Clear Clear  
Wind Chill: -25°   Ceiling: Unl
Heat Index: -11°   Visibility: 10mi
Dew Point: -15°   Wind: 6mph
Humidity: 83%   Direction: 310°NW
Pressure: 30.43"   Gusts: NA
Location:  47.52°N, 95.13°W
Report Text: KBJI 270432Z AUTO 31005KT 10SM CLR M24/M26 A3043 RMK AO2 T12411262
Loading
Personal Weather Stations






























Interactive Weather Map New forecast layout! Learn more

10-Day Weather Forecast

Advertisements
Track Severe Weather on mobile